Date,TemperatureHighF,TemperatureAvgF,TemperatureLowF,DewpointHighF,DewpointAvgF,DewpointLowF,HumidityHigh,HumidityAvg,HumidityLow,PressureMaxIn,PressureMinIn,WindSpeedMaxMPH,WindSpeedAvgMPH,GustSpeedMaxMPH,PrecipitationSumIn
2013-1-1,31,20,-3,100,20,-4,86,71,53,29.64,29.39,20,2,22,0.00
2013-1-2,20,7,-8,100,38,-6,87,77,60,29.93,29.59,11,0,13,0.00
2013-1-3,16,-1,-14,100,42,-5,86,75,48,29.93,29.70,3,0,5,0.00
2013-1-4,33,22,4,25,17,1,88,80,65,29.70,29.51,18,1,21,0.00
2013-1-5,33,26,11,26,17,8,87,72,52,29.96,29.54,14,1,19,0.00
2013-1-6,31,24,10,28,20,7,88,86,77,29.91,29.64,3,0,4,0.00
2013-1-7,32,22,4,28,16,1,88,78,54,30.09,29.67,7,0,9,0.00
2013-1-8,42,19,4,24,12,0,88,78,45,30.09,29.96,10,0,13,0.00
2013-1-9,42,25,10,33,20,7,96,81,61,30.11,29.66,17,1,21,0.00
2013-1-10,42,34,22,32,24,19,87,68,49,30.27,29.73,24,1,31,0.00
2013-1-11,34,28,18,30,23,15,88,83,64,30.26,29.89,11,0,11,0.00
2013-1-12,39,36,33,36,32,30,88,88,87,29.92,29.81,4,0,5,0.00
2013-1-13,41,37,34,38,34,31,89,89,88,29.84,29.67,6,0,6,0.00
2013-1-14,50,38,30,45,32,24,89,80,46,29.98,29.55,20,1,20,0.00
2013-1-15,34,28,24,26,23,21,88,80,63,30.03,29.93,7,0,7,0.00
2013-1-16,30,28,26,27,25,23,88,87,86,29.94,29.51,1,0,2,0.00
2013-1-17,35,26,15,30,17,-5,88,71,36,29.85,29.51,15,1,17,0.00
2013-1-18,20,9,-2,100,11,-4,84,64,37,30.10,29.78,17,0,18,0.00
2013-1-19,40,27,13,27,19,7,86,73,54,30.02,29.53,9,0,10,0.00
2013-1-20,41,30,17,33,20,1,92,66,45,29.66,29.23,30,2,30,0.00
2013-1-21,24,16,5,15,6,-1,87,63,45,29.77,29.49,11,0,23,0.00
2013-1-22,18,10,-1,100,9,-4,87,78,52,29.77,29.47,17,0,20,0.00
2013-1-23,7,-1,-12,100,-28,-100,92,56,36,29.86,29.75,14,1,18,0.00
2013-1-24,11,-2,-17,100,37,-12,83,60,36,30.02,29.84,14,1,17,0.00
2013-1-25,18,5,-9,100,18,-100,80,59,37,30.06,29.81,6,0,6,0.00
2013-1-26,20,8,-2,100,8,-9,87,66,32,29.98,29.77,13,0,16,0.00
2013-1-27,26,12,3,4,-1,-5,80,58,28,30.19,29.97,14,0,15,0.00
2013-1-28,18,12,3,16,8,-2,92,81,50,30.18,29.75,2,0,2,0.00
2013-1-29,32,25,18,29,22,15,88,86,80,29.90,29.76,5,0,5,0.00
2013-1-30,43,37,32,40,34,29,92,87,87,29.80,29.07,11,0,13,0.00
2013-1-31,52,36,24,48,26,9,87,69,49,29.24,28.58,33,3,33,0.00
2013-2-1,25,19,12,17,10,2,86,66,52,29.79,29.24,18,1,19,0.00
2013-2-2,22,15,4,14,7,0,86,71,54,29.92,29.75,9,0,11,0.00
2013-2-3,27,17,5,15,10,2,97,77,56,29.76,29.46,5,0,5,0.00
2013-2-4,25,18,10,14,6,0,87,61,38,29.62,29.45,29,2,33,0.00
2013-2-5,30,14,1,11,5,-2,86,68,40,29.73,29.61,11,0,11,0.00
2013-2-6,32,22,10,22,13,-1,87,69,43,30.03,29.61,15,0,18,0.00
2013-2-7,25,14,4,4,1,-4,78,56,38,30.25,30.02,6,0,10,0.00
2013-2-8,22,19,18,18,12,1,92,76,45,30.18,29.54,7,0,9,0.00
2013-2-9,21,15,4,16,6,-3,87,70,55,30.02,29.54,18,1,18,0.00
2013-2-10,37,10,-10,100,37,-5,87,69,29,30.20,30.02,4,0,4,0.00
2013-2-11,35,25,5,31,21,2,92,84,66,30.04,29.34,11,0,12,0.00
2013-2-12,38,35,31,31,28,24,86,75,65,29.56,29.33,19,2,23,0.00
2013-2-13,37,29,20,24,21,17,86,73,52,29.55,29.45,11,0,12,0.00
2013-2-14,40,28,21,24,20,17,86,75,49,29.69,29.44,7,0,9,0.00
2013-2-15,45,30,22,30,23,18,87,75,48,29.68,29.60,15,0,16,0.00
2013-2-16,32,27,19,25,18,4,86,69,50,29.70,29.53,9,0,14,0.00
2013-2-17,19,15,10,5,2,-1,65,56,50,29.53,29.26,21,2,26,0.00
2013-2-18,26,13,4,4,-1,-4,79,55,30,29.86,29.48,16,1,20,0.00
2013-2-19,36,24,5,31,16,0,85,73,46,29.89,29.30,11,0,11,0.00
2013-2-20,33,26,20,30,20,15,92,78,65,29.48,29.28,19,2,20,0.00
2013-2-21,26,20,13,18,12,5,85,70,53,30.04,29.48,12,1,16,0.00
2013-2-22,38,28,21,22,20,16,84,70,50,30.14,30.00,9,0,16,0.00
2013-2-23,33,31,28,29,26,21,86,81,68,30.00,29.65,6,0,10,0.00
2013-2-24,37,33,30,33,29,27,86,85,84,29.66,29.48,4,0,4,0.00
2013-2-25,37,31,26,32,27,22,92,85,78,29.96,29.64,4,0,5,0.00
2013-2-26,39,32,24,33,27,21,87,83,75,30.05,29.88,8,0,10,0.00
2013-2-27,35,33,31,31,28,26,86,84,78,29.88,29.37,12,1,14,0.00
2013-2-28,41,34,29,37,30,25,92,85,83,29.37,29.28,3,0,3,0.00
2013-3-1,38,33,28,30,27,25,86,79,67,29.44,29.28,10,0,11,0.00
2013-3-2,36,31,26,28,24,21,83,77,65,29.44,29.39,9,0,12,0.00
2013-3-3,35,29,24,27,23,19,84,79,71,29.42,29.34,6,0,13,0.00
2013-3-4,33,28,23,24,21,18,83,76,63,29.56,29.37,13,1,18,0.00
2013-3-5,42,31,27,28,24,21,85,75,57,29.82,29.55,10,0,11,0.00
2013-3-6,36,33,30,30,27,23,85,80,70,29.91,29.80,12,1,15,0.00
2013-3-7,38,32,29,28,25,22,85,76,62,29.89,29.81,17,0,19,0.00
2013-3-8,42,32,27,27,24,22,85,74,50,29.98,29.78,11,1,12,0.00
2013-3-9,54,35,24,27,21,16,86,62,25,30.05,29.94,10,0,11,0.00
2013-3-10,53,36,18,30,24,15,86,64,36,30.11,29.93,6,0,12,0.00
2013-3-11,43,39,34,37,32,29,85,77,68,29.96,29.79,13,0,13,0.00
2013-3-12,48,44,38,43,39,34,84,83,81,29.79,29.41,13,1,16,0.00
2013-3-13,41,35,27,34,28,23,84,75,53,29.53,29.45,13,0,13,0.00
2013-3-14,31,24,16,26,16,8,84,70,47,29.59,29.44,17,2,20,0.00
2013-3-15,35,24,14,27,13,2,84,63,39,29.62,29.33,13,1,17,0.00
2013-3-16,32,25,15,21,12,7,84,59,37,29.61,29.43,15,0,15,0.00
2013-3-17,29,22,13,16,9,2,85,59,36,30.06,29.61,16,1,20,0.00
2013-3-18,34,21,3,22,6,0,84,56,28,30.18,29.92,7,0,10,0.00
2013-3-19,31,28,24,26,24,20,85,84,82,29.92,29.45,9,0,12,0.00
2013-3-20,32,26,17,23,20,13,85,77,61,29.49,29.40,14,1,19,0.00
2013-3-21,37,22,7,18,12,4,86,67,35,29.50,29.34,11,0,14,0.00
2013-3-22,37,24,9,25,16,6,86,73,45,29.47,29.36,16,1,17,0.00
2013-3-23,37,29,18,23,19,14,86,68,50,29.51,29.37,22,2,23,0.00
2013-3-24,41,33,24,25,23,20,84,67,50,29.57,29.47,10,0,11,0.00
2013-3-25,43,31,20,28,23,16,92,73,47,29.52,29.27,7,0,9,0.00
2013-3-26,44,35,25,28,24,20,84,68,42,29.54,29.33,12,0,14,0.00
2013-3-27,48,35,22,30,24,18,85,67,41,29.65,29.51,14,0,19,0.00
2013-3-28,48,37,30,33,29,26,84,74,47,29.78,29.63,8,0,12,0.00
2013-3-29,48,38,29,37,30,25,86,75,51,29.80,29.73,11,0,12,0.00
2013-3-30,51,36,24,31,23,18,84,62,29,29.83,29.75,16,1,17,0.00
2013-3-31,52,37,21,35,25,17,84,65,36,29.85,29.48,13,1,17,0.00
2013-4-1,47,37,28,41,29,12,82,72,40,29.51,29.25,19,2,23,0.00
2013-4-2,33,27,22,21,13,8,68,53,41,29.63,29.50,21,2,23,0.00
2013-4-3,41,30,23,15,12,8,63,47,27,29.90,29.62,24,3,31,0.00
2013-4-4,51,35,21,24,18,12,82,54,26,30.01,29.68,14,1,15,0.00
2013-4-5,53,38,27,29,25,20,89,63,31,29.68,29.43,13,1,16,0.00
2013-4-6,42,30,23,20,11,4,76,47,23,30.02,29.63,17,1,19,0.00
2013-4-7,57,38,21,35,24,16,82,61,35,30.01,29.61,18,1,21,0.00
2013-4-8,62,46,33,36,33,28,88,65,35,29.82,29.64,8,0,13,0.00
2013-4-9,62,48,39,46,39,33,82,73,49,29.75,29.59,16,1,16,0.00
2013-4-10,54,46,42,46,40,36,82,79,75,29.72,29.59,6,0,6,0.00
2013-4-11,43,38,33,37,31,24,82,74,53,29.90,29.61,14,0,15,0.00
2013-4-12,34,32,30,30,26,24,89,80,70,29.90,29.61,8,0,12,0.00
2013-4-13,52,39,32,38,32,26,81,75,54,29.66,29.52,13,0,13,0.00
2013-4-14,47,38,28,36,30,23,85,73,50,29.97,29.64,14,1,18,0.00
2013-4-15,59,41,25,37,30,20,81,66,40,30.11,29.97,11,0,15,0.00
2013-4-16,61,50,38,51,41,32,81,72,56,30.05,29.70,15,1,17,0.00
2013-4-17,60,48,32,44,33,27,82,60,33,30.08,29.75,14,1,17,0.00
2013-4-18,63,45,28,41,30,22,82,59,39,30.15,29.80,17,1,19,0.00
2013-4-19,71,60,49,60,51,41,79,74,63,29.80,29.23,22,2,25,0.00
2013-4-20,53,44,34,44,31,18,79,62,41,29.97,29.33,19,2,25,0.00
2013-4-21,50,37,25,23,19,14,80,51,28,30.41,29.96,14,1,15,0.00
2013-4-22,56,38,23,29,22,18,83,56,30,30.48,30.28,12,1,14,0.00
2013-4-23,40,35,27,34,30,22,82,79,76,30.32,29.91,6,0,6,0.00
2013-4-24,75,55,39,48,41,31,80,61,34,29.92,29.42,13,1,14,0.00
2013-4-25,57,48,31,48,32,22,81,57,27,30.01,29.42,20,2,22,0.00
2013-4-26,58,43,27,36,29,22,82,62,36,30.16,30.01,9,0,10,0.00
2013-4-27,66,47,30,40,31,24,81,58,21,30.17,29.99,8,0,10,0.00
2013-4-28,73,52,30,40,33,24,81,54,26,30.06,29.84,12,0,13,0.00
2013-4-29,67,55,43,44,37,31,70,51,35,29.95,29.86,14,1,17,0.00
2013-4-30,73,58,44,43,37,29,78,47,30,30.04,29.93,12,0,13,0.00
2013-5-1,79,56,35,40,34,28,82,52,17,30.17,30.03,15,0,15,0.00
2013-5-2,82,58,38,47,39,27,81,54,26,30.18,29.99,10,0,13,0.00
2013-5-3,71,52,34,43,37,27,81,59,34,30.24,30.05,13,0,13,0.00
2013-5-4,76,56,37,49,37,30,81,54,23,30.09,29.91,14,0,14,0.00
2013-5-5,76,53,34,41,35,28,83,55,23,30.01,29.87,8,0,12,0.00
2013-5-6,80,55,34,46,33,22,80,52,14,29.96,29.79,12,0,13,0.00
2013-5-7,83,59,38,53,41,31,80,57,21,29.88,29.74,10,0,11,0.00
2013-5-8,73,59,46,60,49,37,79,70,58,29.90,29.73,14,0,21,0.00
2013-5-9,70,62,52,59,51,43,75,69,63,29.73,29.56,9,0,10,0.00
2013-5-10,75,60,46,62,50,36,74,68,54,29.68,29.56,7,0,10,0.00
2013-5-11,67,61,56,57,49,44,71,65,62,29.56,29.35,9,0,10,0.00
2013-5-12,62,52,35,49,39,26,80,62,38,29.51,29.31,16,1,19,0.00
2013-5-13,50,42,38,33,30,27,79,64,46,29.78,29.50,15,1,16,0.00
2013-5-14,54,43,31,36,30,24,83,63,38,29.82,29.71,11,0,12,0.00
2013-5-15,61,45,28,44,34,20,79,66,37,29.78,29.39,13,1,15,0.00
2013-5-16,76,57,39,48,38,30,77,52,27,29.57,29.33,17,2,24,0.00
2013-5-17,66,51,40,44,38,31,77,63,38,29.95,29.56,11,1,14,0.00
2013-5-18,73,53,34,48,38,26,77,58,29,30.03,29.91,6,0,7,0.00
2013-5-19,69,54,41,55,43,32,77,67,50,30.03,29.88,10,0,11,0.00
2013-5-20,75,63,54,64,52,42,73,67,61,29.88,29.66,11,0,13,0.00
2013-5-21,85,64,51,69,52,39,76,64,48,29.73,29.53,10,0,11,0.00
2013-5-22,74,61,52,64,48,39,71,62,55,29.66,29.54,4,0,9,0.00
2013-5-23,76,66,59,64,52,45,67,60,53,29.57,29.44,7,0,9,0.00
2013-5-24,64,55,44,48,43,33,76,65,56,29.64,29.33,8,0,14,0.00
2013-5-25,44,41,36,34,32,27,72,68,65,29.62,29.55,13,0,17,0.00
2013-5-26,53,44,35,43,35,26,78,72,64,29.82,29.52,14,1,16,0.00
2013-5-27,69,50,31,48,34,22,75,57,33,29.91,29.81,13,0,16,0.00
2013-5-28,72,54,34,51,39,25,74,58,36,29.98,29.83,11,0,12,0.00
2013-5-29,61,58,54,46,44,41,71,60,57,29.86,29.69,5,0,5,0.02
2013-5-30,87,70,58,70,55,43,69,59,50,29.80,29.71,2,0,5,0.00
2013-5-31,92,73,55,71,55,41,71,55,30,29.81,29.63,0,0,0,0.00
2013-6-1,92,74,59,71,57,44,71,56,39,29.67,29.52,0,0,0,0.00
2013-6-2,86,72,61,73,57,45,70,60,52,29.55,29.36,0,0,0,0.00
2013-6-11,59,56,55,44,41,40,60,57,56,29.42,29.30,0,0,0,0.00
2013-6-12,68,58,50,56,46,38,74,64,56,29.57,29.30,13,0,20,0.00
2013-6-13,62,54,45,53,41,32,72,62,55,29.56,29.44,4,0,5,0.00
2013-6-14,78,62,52,58,47,38,73,58,37,29.54,29.41,5,0,10,0.00
2013-6-15,77,61,44,58,44,32,73,56,35,29.67,29.54,12,0,15,0.00
2013-6-16,72,58,46,60,45,33,72,61,54,29.66,29.43,8,0,11,0.00
2013-6-17,77,63,50,63,48,36,69,59,50,29.63,29.50,12,0,14,0.00
2013-6-18,61,58,56,49,42,40,67,56,54,29.65,29.61,0,0,0,0.00